createdAt,value
2024-03-12T00:01:42.494Z,100292.31
2024-03-12T00:04:09.967Z,100290.85
2024-03-12T00:06:38.043Z,100293.30
2024-03-12T00:09:08.026Z,100292.52
2024-03-12T00:11:38.401Z,100295.28
2024-03-12T00:14:05.534Z,100296.66
2024-03-12T00:16:35.010Z,100294.24
2024-03-12T00:19:03.648Z,100296.49
2024-03-12T00:21:31.949Z,100296.99
2024-03-12T00:24:00.310Z,100303.42
2024-03-12T00:26:29.669Z,100302.83
2024-03-12T00:28:56.863Z,100301.19
2024-03-12T00:31:24.070Z,100305.21
2024-03-12T00:33:51.219Z,100304.29
2024-03-12T00:36:18.472Z,100304.65
2024-03-12T00:38:45.415Z,100311.11
2024-03-12T00:41:12.370Z,100312.70
2024-03-12T00:43:41.701Z,100307.34
2024-03-12T00:46:13.582Z,100313.13
2024-03-12T00:48:40.610Z,100315.27
2024-03-12T00:51:11.171Z,100312.88
2024-03-12T00:53:37.914Z,100316.01
2024-03-12T00:56:05.030Z,100315.48
2024-03-12T00:58:34.651Z,100313.27
2024-03-12T01:01:02.114Z,100312.40
2024-03-12T01:03:30.733Z,100310.52
2024-03-12T01:05:57.813Z,100313.15
2024-03-12T01:08:25.192Z,100304.92
2024-03-12T01:10:54.106Z,100305.17
2024-03-12T01:13:21.823Z,100303.62
2024-03-12T01:15:49.627Z,100305.64
2024-03-12T01:18:16.774Z,100309.92
2024-03-12T01:20:46.605Z,100307.17
2024-03-12T01:23:14.978Z,100304.10
2024-03-12T01:25:42.845Z,100299.31
2024-03-12T01:28:12.081Z,100300.39
2024-03-12T01:30:39.346Z,100302.36
2024-03-12T01:33:07.524Z,100295.27
2024-03-12T01:35:40.966Z,100290.48
2024-03-12T01:38:11.914Z,100287.27
2024-03-12T01:40:40.480Z,100286.63
2024-03-12T01:43:08.597Z,100290.23
2024-03-12T01:45:37.452Z,100286.60
2024-03-12T01:48:09.655Z,100283.25
2024-03-12T01:50:38.480Z,100281.94
2024-03-12T01:53:07.650Z,100281.31
2024-03-12T01:55:39.625Z,100277.11
2024-03-12T01:58:08.029Z,100280.88
2024-03-12T02:00:35.417Z,100281.54
2024-03-12T02:03:02.540Z,100287.08
2024-03-12T02:05:29.623Z,100284.13
2024-03-12T02:07:56.843Z,100285.08
2024-03-12T02:10:26.490Z,100288.21
2024-03-12T02:12:53.721Z,100290.80
2024-03-12T02:15:22.405Z,100295.46
2024-03-12T02:17:54.288Z,100292.98
2024-03-12T02:20:23.680Z,100294.06
2024-03-12T02:22:55.806Z,100295.68
2024-03-12T02:25:24.095Z,100300.05
2024-03-12T02:27:52.287Z,100300.63
2024-03-12T02:34:26.093Z,100300.60
2024-03-12T02:36:53.439Z,100297.70
2024-03-12T02:39:20.395Z,100296.07
2024-03-12T02:41:47.315Z,100297.72
2024-03-12T02:44:14.182Z,100297.98
2024-03-12T02:46:43.003Z,100300.77
2024-03-12T02:49:10.833Z,100299.77
2024-03-12T02:51:37.976Z,100297.42
2024-03-12T02:54:06.432Z,100296.44
2024-03-12T02:56:34.610Z,100291.73
2024-03-12T02:59:01.471Z,100290.27
2024-03-12T03:01:29.818Z,100288.64
2024-03-12T03:03:58.902Z,100286.43
2024-03-12T03:06:25.927Z,100291.34
2024-03-12T03:08:52.738Z,100300.53
2024-03-12T03:11:19.703Z,100300.85
2024-03-12T03:13:46.613Z,100302.70
2024-03-12T03:16:13.469Z,100304.23
2024-03-12T03:18:40.506Z,100304.96
2024-03-12T03:21:10.376Z,100309.23
2024-03-12T03:23:42.106Z,100311.36
2024-03-12T03:26:11.697Z,100311.74
2024-03-12T03:28:39.284Z,100319.48
2024-03-12T03:31:06.348Z,100320.14
2024-03-12T03:33:33.328Z,100316.20
2024-03-12T03:36:00.275Z,100319.47
2024-03-12T03:38:29.234Z,100317.67
2024-03-12T03:40:57.840Z,100317.80
2024-03-12T03:43:24.705Z,100321.35
2024-03-12T03:45:51.641Z,100323.02
2024-03-12T03:48:18.514Z,100325.58
2024-03-12T03:50:46.938Z,100324.75
2024-03-12T03:53:15.192Z,100322.14
2024-03-12T03:55:42.394Z,100324.29
2024-03-12T03:58:11.537Z,100332.08
2024-03-12T04:00:38.619Z,100332.63
2024-03-12T04:03:07.712Z,100330.58
2024-03-12T04:05:34.885Z,100329.94
2024-03-12T04:08:03.785Z,100339.57
2024-03-12T04:10:31.908Z,100339.40
2024-03-12T04:12:59.837Z,100345.75
2024-03-12T04:15:30.329Z,100346.72
2024-03-12T04:17:58.030Z,100345.84
2024-03-12T04:20:25.168Z,100349.80
2024-03-12T04:22:52.004Z,100351.72
2024-03-12T04:25:19.252Z,100357.16
2024-03-12T04:27:47.200Z,100363.61
2024-03-12T04:30:15.174Z,100365.80
2024-03-12T04:32:43.924Z,100366.63
2024-03-12T04:35:14.375Z,100369.74
2024-03-12T04:37:41.704Z,100376.03
2024-03-12T04:40:09.809Z,100375.66
2024-03-12T04:42:38.691Z,100375.95
2024-03-12T04:45:08.625Z,100377.48
2024-03-12T04:47:38.639Z,100373.73
2024-03-12T04:50:05.867Z,100378.00
2024-03-12T04:52:35.129Z,100375.19
2024-03-12T04:55:03.062Z,100379.92
2024-03-12T04:57:30.067Z,100384.20
2024-03-12T04:59:56.890Z,100386.35
2024-03-12T05:02:24.087Z,100392.06
2024-03-12T05:04:50.965Z,100395.88
2024-03-12T05:07:18.056Z,100394.52
2024-03-12T05:09:45.045Z,100399.75
2024-03-12T05:12:11.980Z,100404.81
2024-03-12T05:14:38.850Z,100409.81
2024-03-12T05:17:07.249Z,100411.78
2024-03-12T05:19:35.200Z,100414.88
2024-03-12T05:22:04.203Z,100412.38
2024-03-12T05:24:35.418Z,100411.61
2024-03-12T05:27:04.910Z,100413.71
2024-03-12T05:29:43.629Z,100412.95
2024-03-12T05:32:20.057Z,100416.21
2024-03-12T05:34:48.892Z,100417.85
2024-03-12T05:37:42.088Z,100417.00
2024-03-12T05:40:18.484Z,100419.86
2024-03-12T05:43:05.309Z,100418.59
2024-03-12T05:45:51.051Z,100418.39
2024-03-12T05:48:18.763Z,100421.91
2024-03-12T05:50:46.526Z,100423.41
2024-03-12T05:53:14.932Z,100428.35
2024-03-12T05:55:42.899Z,100435.11
2024-03-12T05:58:11.385Z,100442.35
2024-03-12T06:00:38.258Z,100447.63
2024-03-12T06:03:05.084Z,100452.79
2024-03-12T06:05:32.378Z,100450.86
2024-03-12T06:08:01.265Z,100452.71
2024-03-12T06:10:28.256Z,100457.40
2024-03-12T06:12:55.183Z,100460.36
2024-03-12T06:15:21.998Z,100461.27
2024-03-12T06:17:48.788Z,100462.15
2024-03-12T06:20:15.658Z,100468.56
2024-03-12T06:22:45.792Z,100470.14
2024-03-12T06:25:14.131Z,100475.80
2024-03-12T06:27:41.857Z,100484.54
2024-03-12T06:30:09.599Z,100487.48
2024-03-12T06:32:36.611Z,100491.41
2024-03-12T06:35:03.655Z,100492.58
2024-03-12T06:41:37.600Z,100504.34
2024-03-12T06:44:09.194Z,100506.69
2024-03-12T06:46:36.012Z,100507.27
2024-03-12T06:49:02.974Z,100508.86
2024-03-12T06:51:33.415Z,100515.27
2024-03-12T06:54:00.631Z,100518.70
2024-03-12T07:00:56.916Z,100531.64
2024-03-12T07:03:25.473Z,100530.71
2024-03-12T07:05:54.041Z,100530.67
2024-03-12T07:08:27.254Z,100529.20
2024-03-12T07:10:56.404Z,100535.71
2024-03-12T07:13:24.999Z,100539.66
2024-03-12T07:15:54.542Z,100542.77
2024-03-12T07:22:46.411Z,100540.02
2024-03-12T07:25:14.662Z,100546.38
2024-03-12T07:27:42.039Z,100547.22
2024-03-12T07:30:11.737Z,100549.28
2024-03-12T07:32:40.479Z,100543.84
2024-03-12T07:35:08.352Z,100548.38
2024-03-12T07:37:41.377Z,100550.40
2024-03-12T07:40:17.525Z,100551.30
2024-03-12T07:42:45.915Z,100552.73
2024-03-12T07:45:16.285Z,100550.41
2024-03-12T07:47:43.964Z,100550.60
2024-03-12T07:50:12.789Z,100555.20
2024-03-12T07:52:40.485Z,100555.16
2024-03-12T07:55:07.743Z,100553.16
2024-03-12T07:57:36.688Z,100553.48
2024-03-12T08:00:13.496Z,100559.63
2024-03-12T08:02:40.852Z,100559.69
2024-03-12T08:05:07.800Z,100558.44
2024-03-12T08:07:36.179Z,100551.50
2024-03-12T08:10:03.192Z,100550.20
2024-03-12T08:12:30.053Z,100553.15
2024-03-12T08:15:00.055Z,100560.51
2024-03-12T08:17:27.864Z,100561.98
2024-03-12T08:19:54.741Z,100562.92
2024-03-12T08:22:23.638Z,100566.63
2024-03-12T08:24:51.645Z,100574.73
2024-03-12T08:27:21.596Z,100575.98
2024-03-12T08:29:48.574Z,100573.56
2024-03-12T08:32:15.385Z,100573.68
2024-03-12T08:34:43.443Z,100573.48
2024-03-12T08:37:13.456Z,100573.41
2024-03-12T08:39:40.886Z,100575.34
2024-03-12T08:42:10.983Z,100575.92
2024-03-12T08:44:38.789Z,100573.08
2024-03-12T08:47:06.090Z,100570.83
2024-03-12T08:49:34.744Z,100571.05
2024-03-12T08:52:01.844Z,100571.63
2024-03-12T08:54:29.137Z,100569.23
2024-03-12T08:56:56.307Z,100566.77
2024-03-12T08:59:23.703Z,100566.94
2024-03-12T09:01:50.703Z,100571.35
2024-03-12T09:04:18.488Z,100574.27
2024-03-12T09:06:45.558Z,100576.58
2024-03-12T09:09:17.386Z,100577.68
2024-03-12T09:11:44.459Z,100577.58
2024-03-12T09:14:11.920Z,100579.69
2024-03-12T09:16:40.738Z,100577.10
2024-03-12T09:19:08.122Z,100580.48
2024-03-12T09:21:35.584Z,100582.33
2024-03-12T09:24:03.021Z,100576.95
2024-03-12T09:26:30.770Z,100578.64
2024-03-12T09:29:00.878Z,100575.44
2024-03-12T09:31:28.850Z,100574.20
2024-03-12T09:33:56.735Z,100574.67
2024-03-12T09:36:25.905Z,100572.50
2024-03-12T09:38:55.103Z,100577.30
2024-03-12T09:41:23.638Z,100580.17
2024-03-12T09:43:52.589Z,100582.05
2024-03-12T09:46:21.381Z,100579.65
2024-03-12T09:48:51.336Z,100582.40
2024-03-12T09:51:18.575Z,100582.00
2024-03-12T09:53:48.042Z,100586.64
2024-03-12T09:56:18.281Z,100585.12
2024-03-12T09:58:49.285Z,100588.21
2024-03-12T10:01:16.506Z,100585.70
2024-03-12T10:03:43.564Z,100584.45
2024-03-12T10:06:11.260Z,100585.85
2024-03-12T10:08:38.144Z,100587.96
2024-03-12T10:11:10.230Z,100594.63
2024-03-12T10:13:40.343Z,100594.52
2024-03-12T10:16:09.024Z,100596.41
2024-03-12T10:18:38.443Z,100601.42
2024-03-12T10:21:08.167Z,100606.15
2024-03-12T10:23:41.509Z,100608.19
2024-03-12T10:26:11.222Z,100612.20
2024-03-12T10:28:39.772Z,100607.34
2024-03-12T10:31:13.432Z,100604.39
2024-03-12T10:33:44.248Z,100605.44
2024-03-12T10:36:12.698Z,100605.31
2024-03-12T10:38:41.628Z,100605.96
2024-03-12T10:41:22.312Z,100607.88
2024-03-12T10:43:51.861Z,100607.39
2024-03-12T10:46:20.924Z,100604.92
2024-03-12T10:53:14.299Z,100602.92
2024-03-12T10:59:57.004Z,100607.96
2024-03-12T11:06:49.236Z,100605.33
2024-03-12T11:09:23.262Z,100604.45
2024-03-12T11:11:53.735Z,100602.48
2024-03-12T11:14:21.853Z,100598.92
2024-03-12T11:16:49.522Z,100602.94
2024-03-12T11:19:26.309Z,100604.46
2024-03-12T11:21:55.286Z,100600.67
2024-03-12T11:24:31.083Z,100600.95
2024-03-12T11:27:01.885Z,100603.60
2024-03-12T11:30:09.996Z,100600.14
2024-03-12T11:32:44.006Z,100592.50
2024-03-12T11:35:19.838Z,100595.48
2024-03-12T11:38:10.351Z,100595.83
2024-03-12T11:40:48.570Z,100590.27
2024-03-12T11:43:35.772Z,100588.07
2024-03-12T11:46:02.765Z,100586.98
2024-03-12T11:48:38.092Z,100586.05
2024-03-12T11:51:06.053Z,100585.28
2024-03-12T11:53:36.831Z,100588.98
2024-03-12T11:56:06.363Z,100587.17
2024-03-12T11:58:42.287Z,100582.08
2024-03-12T12:01:11.758Z,100578.37
2024-03-12T12:03:38.878Z,100575.05
2024-03-12T12:06:07.703Z,100575.12
2024-03-12T12:08:42.775Z,100574.09
2024-03-12T12:11:18.093Z,100572.35
2024-03-12T12:13:48.540Z,100572.18
2024-03-12T12:16:17.716Z,100571.02
2024-03-12T12:18:47.251Z,100570.05
2024-03-12T12:21:16.785Z,100565.95
2024-03-12T12:23:50.565Z,100562.19
2024-03-12T12:26:22.515Z,100555.65
2024-03-12T12:28:55.762Z,100554.10
2024-03-12T12:31:29.302Z,100558.19
2024-03-12T12:34:02.825Z,100555.80
2024-03-12T12:36:34.289Z,100549.30
2024-03-12T12:39:05.468Z,100544.64
2024-03-12T12:41:44.526Z,100546.58
2024-03-12T12:44:22.400Z,100547.57
2024-03-12T12:46:50.232Z,100544.23
2024-03-12T12:49:18.472Z,100542.86
2024-03-12T12:51:47.963Z,100543.74
2024-03-12T12:54:16.897Z,100539.98
2024-03-12T12:56:47.434Z,100539.92
2024-03-12T12:59:16.570Z,100539.44
2024-03-12T13:01:44.109Z,100539.21
2024-03-12T13:04:25.075Z,100537.88
2024-03-12T13:06:55.445Z,100538.48
2024-03-12T13:09:33.921Z,100534.50
2024-03-12T13:12:02.210Z,100530.19
2024-03-12T13:14:29.838Z,100529.25
2024-03-12T13:16:56.826Z,100530.35
2024-03-12T13:19:24.209Z,100533.05
2024-03-12T13:21:51.732Z,100535.98
2024-03-12T13:24:22.367Z,100534.70
2024-03-12T13:26:49.991Z,100537.24
2024-03-12T13:29:17.095Z,100537.29
2024-03-12T13:31:44.552Z,100535.55
2024-03-12T13:34:11.623Z,100541.27
2024-03-12T13:36:38.581Z,100542.23
2024-03-12T13:39:07.544Z,100539.96
2024-03-12T13:45:58.917Z,100546.71
2024-03-12T13:48:28.585Z,100545.73
2024-03-12T13:51:01.016Z,100548.92
2024-03-12T13:53:29.145Z,100548.10
2024-03-12T13:56:00.239Z,100550.86
2024-03-12T13:58:27.488Z,100545.88
2024-03-12T14:00:58.174Z,100552.82
2024-03-12T14:03:27.172Z,100549.61
2024-03-12T14:05:56.335Z,100547.52
2024-03-12T14:08:28.786Z,100547.23
2024-03-12T14:10:58.086Z,100546.80
2024-03-12T14:17:45.791Z,100550.30
2024-03-12T14:20:17.205Z,100551.85
2024-03-12T14:22:47.440Z,100551.70
2024-03-12T14:29:33.945Z,100557.20
2024-03-12T14:32:01.598Z,100554.86
2024-03-12T14:34:29.882Z,100559.73
2024-03-12T14:36:56.910Z,100560.63
2024-03-12T14:39:24.426Z,100561.46
2024-03-12T14:41:52.295Z,100561.97
2024-03-12T14:48:38.729Z,100559.55
2024-03-12T14:51:07.334Z,100557.06
2024-03-12T14:57:54.738Z,100556.77
2024-03-12T15:00:22.285Z,100560.22
2024-03-12T15:02:49.149Z,100560.27
2024-03-12T15:05:16.202Z,100559.23
2024-03-12T15:07:47.348Z,100560.45
2024-03-12T15:14:40.829Z,100557.36
2024-03-12T15:17:12.550Z,100554.98
2024-03-12T15:19:39.870Z,100558.03
2024-03-12T15:22:07.212Z,100558.52
2024-03-12T15:24:36.146Z,100557.04
2024-03-12T15:27:05.097Z,100560.02
2024-03-12T15:33:53.345Z,100564.08
2024-03-12T15:36:22.135Z,100564.30
2024-03-12T15:38:49.682Z,100565.56
2024-03-12T15:41:17.224Z,100567.25
2024-03-12T15:43:45.867Z,100564.27
2024-03-12T15:46:20.406Z,100564.77
2024-03-12T15:48:47.460Z,100569.91
2024-03-12T15:51:14.931Z,100569.24
2024-03-12T15:53:43.743Z,100576.16
2024-03-12T15:56:14.284Z,100577.31
2024-03-12T15:58:42.144Z,100575.60
2024-03-12T16:01:09.116Z,100581.13
2024-03-12T16:03:39.982Z,100582.62
2024-03-12T16:06:08.086Z,100582.50
2024-03-12T16:08:34.917Z,100582.20
2024-03-12T16:11:04.128Z,100585.19
2024-03-12T16:13:31.153Z,100588.60
2024-03-12T16:15:58.089Z,100594.56
2024-03-12T16:18:26.169Z,100591.12
2024-03-12T16:20:53.344Z,100593.04
2024-03-12T16:23:20.246Z,100596.35
2024-03-12T16:25:47.357Z,100604.23
2024-03-12T16:28:14.174Z,100610.08
2024-03-12T16:30:43.441Z,100613.42
2024-03-12T16:33:10.262Z,100617.16
2024-03-12T16:35:37.156Z,100616.63
2024-03-12T16:38:04.430Z,100620.29
2024-03-12T16:40:31.800Z,100620.30
2024-03-12T16:42:58.861Z,100625.63
2024-03-12T16:45:25.788Z,100629.77
2024-03-12T16:47:52.784Z,100633.59
2024-03-12T16:50:19.909Z,100632.66
2024-03-12T16:52:47.712Z,100635.15
2024-03-12T16:55:15.634Z,100637.04
2024-03-12T16:57:43.012Z,100638.16
2024-03-12T17:00:15.571Z,100641.09
2024-03-12T17:02:43.692Z,100639.90
2024-03-12T17:09:31.142Z,100640.22
2024-03-12T17:11:58.314Z,100646.83
2024-03-12T17:14:30.741Z,100656.98
2024-03-12T17:17:07.689Z,100661.98
2024-03-12T17:19:36.924Z,100666.90
2024-03-12T17:22:07.346Z,100671.13
2024-03-12T17:24:35.825Z,100676.65
2024-03-12T17:27:10.417Z,100678.43
2024-03-12T17:29:38.408Z,100683.09
2024-03-12T17:32:11.904Z,100688.50
2024-03-12T17:34:40.156Z,100693.24
2024-03-12T17:37:17.741Z,100700.38
2024-03-12T17:39:47.973Z,100701.44
2024-03-12T17:42:21.772Z,100707.75
2024-03-12T17:44:49.560Z,100709.13
2024-03-12T17:47:22.296Z,100711.23
2024-03-12T17:49:51.238Z,100717.81
2024-03-12T17:52:18.288Z,100720.08
2024-03-12T17:54:47.226Z,100722.84
2024-03-12T17:57:17.870Z,100726.10
2024-03-12T17:59:45.973Z,100724.00
2024-03-12T18:02:15.607Z,100728.61
2024-03-12T18:09:01.434Z,100728.05
2024-03-12T18:15:50.672Z,100743.92
2024-03-12T18:18:17.613Z,100745.55
2024-03-12T18:25:05.025Z,100750.40
2024-03-12T18:31:39.181Z,100750.65
2024-03-12T18:34:11.014Z,100751.88
2024-03-12T18:36:38.013Z,100752.45
2024-03-12T18:39:05.265Z,100754.42
2024-03-12T18:41:32.091Z,100756.44
2024-03-12T18:48:20.652Z,100758.02
2024-03-12T18:50:50.413Z,100765.08
2024-03-12T18:57:42.545Z,100774.55
2024-03-12T19:00:15.710Z,100776.20
2024-03-12T19:07:04.616Z,100781.17
2024-03-12T19:09:32.760Z,100781.91
2024-03-12T19:16:23.603Z,100785.79
2024-03-12T19:18:51.241Z,100792.25
2024-03-12T19:21:20.972Z,100795.57
2024-03-12T19:23:52.782Z,100796.76
2024-03-12T19:26:20.320Z,100795.30
2024-03-12T19:28:47.387Z,100797.61
2024-03-12T19:31:15.799Z,100799.69
2024-03-12T19:33:47.681Z,100796.87
2024-03-12T19:36:22.026Z,100801.43
2024-03-12T19:38:49.912Z,100804.46
2024-03-12T19:41:18.886Z,100803.83
2024-03-12T19:43:47.325Z,100802.30
2024-03-12T19:46:16.451Z,100802.34
2024-03-12T19:48:44.500Z,100806.91
2024-03-12T19:51:14.317Z,100809.48
2024-03-12T19:53:41.171Z,100809.52
2024-03-12T19:56:13.397Z,100810.69
2024-03-12T19:58:40.470Z,100811.93
2024-03-12T20:01:07.849Z,100816.32
2024-03-12T20:03:35.039Z,100823.20
2024-03-12T20:06:02.035Z,100829.65
2024-03-12T20:08:30.238Z,100833.83
2024-03-12T20:10:57.375Z,100838.64
2024-03-12T20:13:24.924Z,100839.89
2024-03-12T20:15:53.407Z,100841.73
2024-03-12T20:18:20.622Z,100840.38
2024-03-12T20:20:47.664Z,100838.98
2024-03-12T20:23:14.576Z,100842.45
2024-03-12T20:25:41.710Z,100842.81
2024-03-12T20:28:13.417Z,100843.70
2024-03-12T20:30:41.080Z,100842.09
2024-03-12T20:33:13.200Z,100845.45
2024-03-12T20:35:40.322Z,100845.14
2024-03-12T20:38:09.816Z,100844.98
2024-03-12T20:40:37.046Z,100845.05
2024-03-12T20:43:07.160Z,100847.86
2024-03-12T20:45:35.728Z,100848.75
2024-03-12T20:48:04.333Z,100848.48
2024-03-12T20:54:55.561Z,100850.55
2024-03-12T20:57:22.398Z,100846.36
2024-03-12T20:59:49.314Z,100848.69
2024-03-12T21:02:16.219Z,100846.92
2024-03-12T21:04:44.457Z,100845.58
2024-03-12T21:07:12.268Z,100848.09
2024-03-12T21:09:40.157Z,100848.47
2024-03-12T21:12:07.060Z,100850.94
2024-03-12T21:14:34.026Z,100853.39
2024-03-12T21:17:12.084Z,100861.83
2024-03-12T21:19:38.849Z,100859.88
2024-03-12T21:22:09.569Z,100859.97
2024-03-12T21:24:37.723Z,100859.86
2024-03-12T21:27:04.769Z,100859.13
2024-03-12T21:29:34.261Z,100863.58
2024-03-12T21:32:01.157Z,100866.21
2024-03-12T21:34:28.107Z,100865.20
2024-03-12T21:36:54.887Z,100868.00
2024-03-12T21:39:23.532Z,100870.86
2024-03-12T21:41:50.418Z,100872.23
2024-03-12T21:44:20.166Z,100877.48
2024-03-12T21:46:50.747Z,100877.15
2024-03-12T21:49:17.682Z,100875.12
2024-03-12T21:51:44.608Z,100877.84
2024-03-12T21:58:20.409Z,100885.05
2024-03-12T22:00:47.972Z,100890.52
2024-03-12T22:03:16.202Z,100898.02
2024-03-12T22:05:43.020Z,100897.95
2024-03-12T22:08:09.845Z,100898.36
2024-03-12T22:10:37.054Z,100899.34
2024-03-12T22:13:04.645Z,100904.43
2024-03-12T22:15:31.584Z,100903.86
2024-03-12T22:17:58.448Z,100905.88
2024-03-12T22:20:25.677Z,100904.40
2024-03-12T22:22:55.272Z,100907.63
2024-03-12T22:25:23.822Z,100909.03
2024-03-12T22:27:51.014Z,100911.37
2024-03-12T22:30:18.791Z,100911.41
2024-03-12T22:32:46.678Z,100916.05
2024-03-12T22:35:13.730Z,100915.73
2024-03-12T22:37:43.499Z,100919.21
2024-03-12T22:40:13.726Z,100914.36
2024-03-12T22:42:41.408Z,100918.33
2024-03-12T22:45:10.158Z,100913.72
2024-03-12T22:47:37.222Z,100915.79
2024-03-12T22:50:04.377Z,100914.48
2024-03-12T22:52:32.032Z,100909.23
2024-03-12T22:54:58.952Z,100911.30
2024-03-12T22:57:27.910Z,100922.61
2024-03-12T22:59:56.041Z,100923.13
2024-03-12T23:02:23.526Z,100928.05
2024-03-12T23:04:52.237Z,100929.73
2024-03-12T23:07:20.855Z,100934.55
2024-03-12T23:09:50.027Z,100933.02
2024-03-12T23:12:18.473Z,100937.60
2024-03-12T23:14:45.291Z,100937.56
2024-03-12T23:17:12.093Z,100942.48
2024-03-12T23:19:42.136Z,100942.13
2024-03-12T23:22:10.783Z,100944.72
2024-03-12T23:24:39.383Z,100946.58
2024-03-12T23:27:06.736Z,100946.17
2024-03-12T23:29:34.784Z,100952.45
2024-03-12T23:32:01.629Z,100960.13
2024-03-12T23:34:28.585Z,100961.38
2024-03-12T23:36:55.655Z,100964.41
2024-03-12T23:39:25.187Z,100958.77
2024-03-12T23:41:53.779Z,100963.29
2024-03-12T23:44:20.833Z,100962.20
2024-03-12T23:46:47.716Z,100964.83
2024-03-12T23:49:14.621Z,100959.43
2024-03-12T23:51:41.632Z,100959.30
2024-03-12T23:54:08.512Z,100960.35
2024-03-12T23:56:35.614Z,100956.86
2024-03-12T23:59:02.457Z,100952.89
